Teneriffa, Canary Islands

30. heinäkuuta 2015 klo 09:10 (WEST) (GMT +0100)
Plaza Victor Zurita Soler | | Change Station
CLOSE
Current Station
Omat sääasemat
Location: San Cristóbal De La Laguna, CANARIAS
Korkeus: 1795 ft
Lähimmät sääasemat

Kork 1795 ft 28.48 °N, 16.31 °W | Updated 18 seconds ago

Light Drizzle
Tihkusadetta
71.6 °F
Tuntuu kuin 71.6 °F
N
8.3
Tuuli Suunnaltaan vaihteleva Tuuli ilmansuunnasta Lännen ja luoteen välinen
Gusts 12.3 mph

Tänään
Korkea -- | Matala -- °F
--% Sateen mahd.
Eilen
Korkea -- | Matala -- °F
Precip. -- tuumaa
7:25 AM 8:57 PM
Kasvava kupera kuu, 98% visible
Ilmanpaine 30.09 tuumaa
Näkyvyys 6.2 mailia
Pilviä Harvoja pilviä 300 ft
Vähäistä pilvisyyttä 700 ft
Pilvistä 1300 ft
Kastepiste 68 °F
Ilmankosteus 89%
Sademäärä 0.00 tuumaa
Lumensyvyys Ei saatavilla
UV 1.0 / 12
Pollen Ei saatavilla
Ilmanlaatu Ei saatavilla
Flu Activity Ei saatavilla
METAR GCXO 300800Z 31018KT 9999 -DZ FEW003 SCT007 BKN013 18/17 Q1019 NOSIG

More Conditions Fewer Conditions

Ilmanpaine 30.09 tuumaa
Näkyvyys 6.2 mailia
Pilviä Harvoja pilviä 300 ft
Vähäistä pilvisyyttä 700 ft
Pilvistä 1300 ft
Kastepiste 68 °F
Ilmankosteus 89%
Sademäärä 0.00 tuumaa
Lumensyvyys Ei saatavilla
UV 1.0 / 12
Pollen Ei saatavilla
Ilmanlaatu Ei saatavilla
Flu Activity Ei saatavilla
METAR GCXO 300800Z 31018KT 9999 -DZ FEW003 SCT007 BKN013 18/17 Q1019 NOSIG

More Conditions Fewer Conditions

10-Day Weather Forecast

×

Almanac

Tähtitiede

Jul. 30, 2015 Nousuaika Laskuaika
Valoisa aika
Porvarillinen hämärä
Nauttinen hämärä
Astronominen hämärä
Kuu
Näkyvän valon pituus
Päivän pituus
Tomorrow will be .
, % of the Moon is Illuminated

Tämän päivän ennätykset

Country Highs Country Lows

Community

WunderPhotos

Upload Photos

1,842,315 photos uploaded!

WunderBlogs® & News

Nearby

Ilmanlaatu

  Ilmanlaatu AQ Index Pollutant
Not available.

Lumensyvyys

Station Depth Korkeus

Maanjäristysaktiivisuus

Paikkakunta Distance Mag. Time & Date
Minimum magnitude displayed is 2.5.

Coastal Water Temperatures

Paikka Lämpötila

Stations

Lähimmät sääasemat

Aseman sijainti Lämpötila Tuulen hyytävyys Kastepiste Ilmankosteus Tuuli Precip. Kork Päivitetty Tyyppi